sensor_id;sensor_type;location;lat;lon;timestamp;P1;durP1;ratioP1;P2;durP2;ratioP2
1719;SDS011;857;52.872;9.692;2023-09-30T00:01:49;6.83;;;2.67;;
1719;SDS011;857;52.872;9.692;2023-09-30T00:04:17;5.57;;;2.47;;
1719;SDS011;857;52.872;9.692;2023-09-30T00:09:20;10.27;;;3.17;;
1719;SDS011;857;52.872;9.692;2023-09-30T00:11:48;7.60;;;3.07;;
1719;SDS011;857;52.872;9.692;2023-09-30T00:14:16;7.43;;;2.87;;
1719;SDS011;857;52.872;9.692;2023-09-30T00:16:46;5.63;;;2.70;;
1719;SDS011;857;52.872;9.692;2023-09-30T00:19:15;7.33;;;3.27;;
1719;SDS011;857;52.872;9.692;2023-09-30T00:21:43;5.20;;;3.13;;
1719;SDS011;857;52.872;9.692;2023-09-30T00:24:11;6.77;;;3.00;;
1719;SDS011;857;52.872;9.692;2023-09-30T00:26:40;6.67;;;2.47;;
1719;SDS011;857;52.872;9.692;2023-09-30T00:29:08;7.33;;;3.23;;
1719;SDS011;857;52.872;9.692;2023-09-30T00:31:40;9.53;;;3.80;;
1719;SDS011;857;52.872;9.692;2023-09-30T00:34:07;7.80;;;2.77;;
1719;SDS011;857;52.872;9.692;2023-09-30T00:36:35;6.50;;;3.27;;
1719;SDS011;857;52.872;9.692;2023-09-30T00:39:03;7.20;;;2.83;;
1719;SDS011;857;52.872;9.692;2023-09-30T00:41:31;7.80;;;3.13;;
1719;SDS011;857;52.872;9.692;2023-09-30T00:44:02;9.37;;;3.27;;
1719;SDS011;857;52.872;9.692;2023-09-30T00:46:30;10.00;;;3.10;;
1719;SDS011;857;52.872;9.692;2023-09-30T00:48:59;4.57;;;3.07;;
1719;SDS011;857;52.872;9.692;2023-09-30T00:51:28;6.17;;;2.60;;
1719;SDS011;857;52.872;9.692;2023-09-30T00:53:58;8.57;;;3.03;;
1719;SDS011;857;52.872;9.692;2023-09-30T00:56:27;9.77;;;2.93;;
1719;SDS011;857;52.872;9.692;2023-09-30T00:58:54;7.07;;;3.10;;
1719;SDS011;857;52.872;9.692;2023-09-30T01:01:24;7.93;;;3.20;;
1719;SDS011;857;52.872;9.692;2023-09-30T01:03:52;10.27;;;3.77;;
1719;SDS011;857;52.872;9.692;2023-09-30T01:06:20;8.63;;;3.63;;
1719;SDS011;857;52.872;9.692;2023-09-30T01:08:48;7.53;;;3.47;;
1719;SDS011;857;52.872;9.692;2023-09-30T01:11:16;7.73;;;3.03;;
1719;SDS011;857;52.872;9.692;2023-09-30T01:13:44;9.97;;;2.90;;
1719;SDS011;857;52.872;9.692;2023-09-30T01:16:13;7.07;;;3.43;;
1719;SDS011;857;52.872;9.692;2023-09-30T01:18:42;8.60;;;2.87;;
1719;SDS011;857;52.872;9.692;2023-09-30T01:21:10;5.90;;;2.70;;
1719;SDS011;857;52.872;9.692;2023-09-30T01:23:41;7.13;;;2.73;;
1719;SDS011;857;52.872;9.692;2023-09-30T01:26:12;9.60;;;3.30;;
1719;SDS011;857;52.872;9.692;2023-09-30T01:28:41;6.27;;;2.77;;
1719;SDS011;857;52.872;9.692;2023-09-30T01:31:09;6.87;;;3.40;;
1719;SDS011;857;52.872;9.692;2023-09-30T01:33:38;5.90;;;2.57;;
1719;SDS011;857;52.872;9.692;2023-09-30T01:36:06;10.30;;;3.00;;
1719;SDS011;857;52.872;9.692;2023-09-30T01:38:35;8.60;;;2.73;;
1719;SDS011;857;52.872;9.692;2023-09-30T01:41:04;11.70;;;3.27;;
1719;SDS011;857;52.872;9.692;2023-09-30T01:43:34;8.07;;;3.60;;
1719;SDS011;857;52.872;9.692;2023-09-30T01:46:03;6.77;;;3.13;;
1719;SDS011;857;52.872;9.692;2023-09-30T01:51:08;9.40;;;3.73;;
1719;SDS011;857;52.872;9.692;2023-09-30T01:53:36;15.20;;;3.43;;
1719;SDS011;857;52.872;9.692;2023-09-30T01:56:07;7.67;;;3.20;;
1719;SDS011;857;52.872;9.692;2023-09-30T01:58:35;5.40;;;2.80;;
1719;SDS011;857;52.872;9.692;2023-09-30T02:01:04;7.00;;;3.07;;
1719;SDS011;857;52.872;9.692;2023-09-30T02:03:35;6.87;;;2.87;;
1719;SDS011;857;52.872;9.692;2023-09-30T02:06:04;8.27;;;3.40;;
1719;SDS011;857;52.872;9.692;2023-09-30T02:08:31;7.40;;;3.20;;
1719;SDS011;857;52.872;9.692;2023-09-30T02:11:02;7.33;;;3.37;;
1719;SDS011;857;52.872;9.692;2023-09-30T02:13:32;6.30;;;2.80;;
1719;SDS011;857;52.872;9.692;2023-09-30T02:16:00;11.67;;;3.30;;
1719;SDS011;857;52.872;9.692;2023-09-30T02:18:28;7.10;;;3.23;;
1719;SDS011;857;52.872;9.692;2023-09-30T02:20:57;10.13;;;2.80;;
1719;SDS011;857;52.872;9.692;2023-09-30T02:23:27;11.30;;;4.30;;
1719;SDS011;857;52.872;9.692;2023-09-30T02:25:55;6.60;;;2.53;;
1719;SDS011;857;52.872;9.692;2023-09-30T02:28:23;7.80;;;3.30;;
1719;SDS011;857;52.872;9.692;2023-09-30T02:30:52;8.90;;;3.27;;
1719;SDS011;857;52.872;9.692;2023-09-30T02:33:20;9.33;;;3.23;;
1719;SDS011;857;52.872;9.692;2023-09-30T02:35:48;6.70;;;3.10;;
1719;SDS011;857;52.872;9.692;2023-09-30T02:38:17;7.93;;;3.23;;
1719;SDS011;857;52.872;9.692;2023-09-30T02:40:47;6.93;;;3.53;;
1719;SDS011;857;52.872;9.692;2023-09-30T02:43:15;7.00;;;3.50;;
1719;SDS011;857;52.872;9.692;2023-09-30T02:45:43;10.00;;;3.57;;
1719;SDS011;857;52.872;9.692;2023-09-30T02:48:12;8.33;;;3.47;;
1719;SDS011;857;52.872;9.692;2023-09-30T02:50:41;6.37;;;2.90;;
1719;SDS011;857;52.872;9.692;2023-09-30T02:53:12;8.90;;;3.20;;
1719;SDS011;857;52.872;9.692;2023-09-30T02:55:40;8.30;;;2.90;;
1719;SDS011;857;52.872;9.692;2023-09-30T02:58:10;7.10;;;3.13;;
1719;SDS011;857;52.872;9.692;2023-09-30T03:00:38;6.63;;;2.97;;
1719;SDS011;857;52.872;9.692;2023-09-30T03:03:05;9.00;;;3.37;;
1719;SDS011;857;52.872;9.692;2023-09-30T03:05:37;12.33;;;3.43;;
1719;SDS011;857;52.872;9.692;2023-09-30T03:08:04;6.93;;;2.87;;
1719;SDS011;857;52.872;9.692;2023-09-30T03:10:32;6.70;;;3.10;;
1719;SDS011;857;52.872;9.692;2023-09-30T03:13:00;9.23;;;3.17;;
1719;SDS011;857;52.872;9.692;2023-09-30T03:15:28;11.47;;;3.53;;
1719;SDS011;857;52.872;9.692;2023-09-30T03:17:57;9.47;;;3.40;;
1719;SDS011;857;52.872;9.692;2023-09-30T03:20:25;6.07;;;3.10;;
1719;SDS011;857;52.872;9.692;2023-09-30T03:22:56;8.70;;;2.97;;
1719;SDS011;857;52.872;9.692;2023-09-30T03:25:25;7.43;;;3.03;;
1719;SDS011;857;52.872;9.692;2023-09-30T03:27:54;7.97;;;3.00;;
1719;SDS011;857;52.872;9.692;2023-09-30T03:30:22;8.63;;;3.47;;
1719;SDS011;857;52.872;9.692;2023-09-30T03:32:50;7.90;;;2.90;;
1719;SDS011;857;52.872;9.692;2023-09-30T03:35:18;5.37;;;2.70;;
1719;SDS011;857;52.872;9.692;2023-09-30T03:37:47;13.13;;;3.37;;
1719;SDS011;857;52.872;9.692;2023-09-30T03:40:17;7.47;;;3.37;;
1719;SDS011;857;52.872;9.692;2023-09-30T03:42:45;8.13;;;3.03;;
1719;SDS011;857;52.872;9.692;2023-09-30T03:45:14;8.50;;;3.77;;
1719;SDS011;857;52.872;9.692;2023-09-30T03:47:42;7.30;;;2.80;;
1719;SDS011;857;52.872;9.692;2023-09-30T03:50:11;8.40;;;3.50;;
1719;SDS011;857;52.872;9.692;2023-09-30T03:52:40;8.73;;;3.83;;
1719;SDS011;857;52.872;9.692;2023-09-30T03:55:10;5.83;;;3.00;;
1719;SDS011;857;52.872;9.692;2023-09-30T03:57:47;7.93;;;3.40;;
1719;SDS011;857;52.872;9.692;2023-09-30T04:00:16;5.67;;;3.07;;
1719;SDS011;857;52.872;9.692;2023-09-30T04:02:45;5.73;;;2.97;;
1719;SDS011;857;52.872;9.692;2023-09-30T04:05:15;5.70;;;2.90;;
1719;SDS011;857;52.872;9.692;2023-09-30T04:07:45;8.23;;;3.80;;
1719;SDS011;857;52.872;9.692;2023-09-30T04:10:13;9.10;;;3.87;;
1719;SDS011;857;52.872;9.692;2023-09-30T04:12:41;8.80;;;3.97;;
1719;SDS011;857;52.872;9.692;2023-09-30T04:15:23;9.17;;;3.80;;
1719;SDS011;857;52.872;9.692;2023-09-30T04:17:52;14.03;;;4.57;;
1719;SDS011;857;52.872;9.692;2023-09-30T04:20:21;8.47;;;4.30;;
1719;SDS011;857;52.872;9.692;2023-09-30T04:22:52;7.23;;;3.47;;
1719;SDS011;857;52.872;9.692;2023-09-30T04:25:23;10.27;;;3.80;;
1719;SDS011;857;52.872;9.692;2023-09-30T04:27:51;7.20;;;3.63;;
1719;SDS011;857;52.872;9.692;2023-09-30T04:30:21;6.83;;;3.40;;
1719;SDS011;857;52.872;9.692;2023-09-30T04:32:50;11.10;;;4.33;;
1719;SDS011;857;52.872;9.692;2023-09-30T04:35:18;7.23;;;3.83;;
1719;SDS011;857;52.872;9.692;2023-09-30T04:37:47;12.13;;;4.73;;
1719;SDS011;857;52.872;9.692;2023-09-30T04:40:15;15.67;;;4.73;;
1719;SDS011;857;52.872;9.692;2023-09-30T04:42:47;13.60;;;4.80;;
1719;SDS011;857;52.872;9.692;2023-09-30T04:45:15;10.40;;;4.27;;
1719;SDS011;857;52.872;9.692;2023-09-30T04:47:45;11.23;;;4.80;;
1719;SDS011;857;52.872;9.692;2023-09-30T04:50:16;14.47;;;4.93;;
1719;SDS011;857;52.872;9.692;2023-09-30T04:52:48;13.17;;;4.50;;
1719;SDS011;857;52.872;9.692;2023-09-30T04:55:18;9.50;;;4.13;;
1719;SDS011;857;52.872;9.692;2023-09-30T04:57:48;14.00;;;4.77;;
1719;SDS011;857;52.872;9.692;2023-09-30T05:00:17;12.20;;;4.93;;
1719;SDS011;857;52.872;9.692;2023-09-30T05:02:47;7.10;;;3.30;;
1719;SDS011;857;52.872;9.692;2023-09-30T05:05:16;10.60;;;5.87;;
1719;SDS011;857;52.872;9.692;2023-09-30T05:07:44;10.07;;;4.50;;
1719;SDS011;857;52.872;9.692;2023-09-30T05:10:14;9.83;;;4.13;;
1719;SDS011;857;52.872;9.692;2023-09-30T05:12:42;11.73;;;4.20;;
1719;SDS011;857;52.872;9.692;2023-09-30T05:15:12;12.30;;;4.33;;
1719;SDS011;857;52.872;9.692;2023-09-30T05:17:41;10.07;;;4.70;;
1719;SDS011;857;52.872;9.692;2023-09-30T05:20:10;14.10;;;4.57;;
1719;SDS011;857;52.872;9.692;2023-09-30T05:22:39;9.43;;;4.23;;
1719;SDS011;857;52.872;9.692;2023-09-30T05:25:12;8.50;;;3.80;;
1719;SDS011;857;52.872;9.692;2023-09-30T05:27:41;13.63;;;4.93;;
1719;SDS011;857;52.872;9.692;2023-09-30T05:30:09;8.83;;;4.67;;
1719;SDS011;857;52.872;9.692;2023-09-30T05:32:37;8.73;;;4.43;;
1719;SDS011;857;52.872;9.692;2023-09-30T05:35:05;7.40;;;3.80;;
1719;SDS011;857;52.872;9.692;2023-09-30T05:37:40;10.53;;;4.27;;
1719;SDS011;857;52.872;9.692;2023-09-30T05:40:10;12.63;;;4.70;;
1719;SDS011;857;52.872;9.692;2023-09-30T05:42:46;7.07;;;3.00;;
1719;SDS011;857;52.872;9.692;2023-09-30T05:45:14;8.30;;;3.90;;
1719;SDS011;857;52.872;9.692;2023-09-30T05:47:42;16.23;;;4.87;;
1719;SDS011;857;52.872;9.692;2023-09-30T05:50:12;11.33;;;4.33;;
1719;SDS011;857;52.872;9.692;2023-09-30T05:52:43;8.80;;;3.73;;
1719;SDS011;857;52.872;9.692;2023-09-30T05:55:11;9.07;;;3.53;;
1719;SDS011;857;52.872;9.692;2023-09-30T05:57:40;7.87;;;4.07;;
1719;SDS011;857;52.872;9.692;2023-09-30T06:00:10;10.00;;;3.47;;
1719;SDS011;857;52.872;9.692;2023-09-30T06:02:54;13.10;;;4.30;;
1719;SDS011;857;52.872;9.692;2023-09-30T06:05:21;6.77;;;3.27;;
1719;SDS011;857;52.872;9.692;2023-09-30T06:07:53;8.30;;;3.67;;
1719;SDS011;857;52.872;9.692;2023-09-30T06:10:20;7.40;;;3.90;;
1719;SDS011;857;52.872;9.692;2023-09-30T06:12:52;5.93;;;3.43;;
1719;SDS011;857;52.872;9.692;2023-09-30T06:15:20;8.57;;;4.07;;
1719;SDS011;857;52.872;9.692;2023-09-30T06:17:51;16.60;;;5.03;;
1719;SDS011;857;52.872;9.692;2023-09-30T06:20:19;13.67;;;4.10;;
1719;SDS011;857;52.872;9.692;2023-09-30T06:22:48;9.83;;;3.53;;
1719;SDS011;857;52.872;9.692;2023-09-30T06:25:17;9.27;;;3.87;;
1719;SDS011;857;52.872;9.692;2023-09-30T06:27:46;8.90;;;4.93;;
1719;SDS011;857;52.872;9.692;2023-09-30T06:30:18;14.30;;;4.67;;
1719;SDS011;857;52.872;9.692;2023-09-30T06:32:46;9.17;;;4.60;;
1719;SDS011;857;52.872;9.692;2023-09-30T06:35:14;7.33;;;3.93;;
1719;SDS011;857;52.872;9.692;2023-09-30T06:37:42;13.20;;;4.50;;
1719;SDS011;857;52.872;9.692;2023-09-30T06:40:21;7.90;;;4.30;;
1719;SDS011;857;52.872;9.692;2023-09-30T06:42:50;9.23;;;4.03;;
1719;SDS011;857;52.872;9.692;2023-09-30T06:45:20;8.63;;;3.70;;
1719;SDS011;857;52.872;9.692;2023-09-30T06:47:50;8.83;;;3.43;;
1719;SDS011;857;52.872;9.692;2023-09-30T06:50:18;12.30;;;3.90;;
1719;SDS011;857;52.872;9.692;2023-09-30T06:52:47;7.57;;;3.80;;
1719;SDS011;857;52.872;9.692;2023-09-30T06:55:16;13.37;;;4.57;;
1719;SDS011;857;52.872;9.692;2023-09-30T06:57:48;8.50;;;3.80;;
1719;SDS011;857;52.872;9.692;2023-09-30T07:02:51;6.90;;;3.53;;
1719;SDS011;857;52.872;9.692;2023-09-30T07:05:20;11.17;;;3.20;;
1719;SDS011;857;52.872;9.692;2023-09-30T07:07:47;6.77;;;3.70;;
1719;SDS011;857;52.872;9.692;2023-09-30T07:10:16;6.57;;;3.77;;
1719;SDS011;857;52.872;9.692;2023-09-30T07:12:44;9.70;;;3.70;;
1719;SDS011;857;52.872;9.692;2023-09-30T07:15:14;8.13;;;3.57;;
1719;SDS011;857;52.872;9.692;2023-09-30T07:17:41;8.73;;;3.10;;
1719;SDS011;857;52.872;9.692;2023-09-30T07:20:18;9.13;;;3.70;;
1719;SDS011;857;52.872;9.692;2023-09-30T07:22:54;7.30;;;3.43;;
1719;SDS011;857;52.872;9.692;2023-09-30T07:25:22;7.47;;;3.03;;
1719;SDS011;857;52.872;9.692;2023-09-30T07:30:41;11.90;;;3.60;;
1719;SDS011;857;52.872;9.692;2023-09-30T07:33:27;4.93;;;3.23;;
1719;SDS011;857;52.872;9.692;2023-09-30T07:35:55;6.00;;;3.03;;
1719;SDS011;857;52.872;9.692;2023-09-30T07:38:30;10.13;;;3.47;;
1719;SDS011;857;52.872;9.692;2023-09-30T07:41:00;10.87;;;3.67;;
1719;SDS011;857;52.872;9.692;2023-09-30T07:43:31;7.30;;;3.63;;
1719;SDS011;857;52.872;9.692;2023-09-30T07:48:33;9.20;;;3.50;;
1719;SDS011;857;52.872;9.692;2023-09-30T07:51:01;5.30;;;2.60;;
1719;SDS011;857;52.872;9.692;2023-09-30T07:53:32;8.13;;;3.60;;
1719;SDS011;857;52.872;9.692;2023-09-30T07:58:37;12.77;;;3.37;;
1719;SDS011;857;52.872;9.692;2023-09-30T08:01:07;7.83;;;2.40;;
1719;SDS011;857;52.872;9.692;2023-09-30T08:03:41;10.97;;;3.13;;
1719;SDS011;857;52.872;9.692;2023-09-30T08:06:09;10.10;;;2.97;;
1719;SDS011;857;52.872;9.692;2023-09-30T08:08:37;6.83;;;3.23;;
1719;SDS011;857;52.872;9.692;2023-09-30T08:11:05;9.43;;;3.13;;
1719;SDS011;857;52.872;9.692;2023-09-30T08:13:34;8.57;;;3.33;;
1719;SDS011;857;52.872;9.692;2023-09-30T08:16:02;8.43;;;2.70;;
1719;SDS011;857;52.872;9.692;2023-09-30T08:18:30;7.00;;;2.90;;
1719;SDS011;857;52.872;9.692;2023-09-30T08:20:59;4.67;;;1.77;;
1719;SDS011;857;52.872;9.692;2023-09-30T08:23:27;4.27;;;2.60;;
1719;SDS011;857;52.872;9.692;2023-09-30T08:25:57;7.03;;;3.10;;
1719;SDS011;857;52.872;9.692;2023-09-30T08:28:32;5.57;;;2.73;;
1719;SDS011;857;52.872;9.692;2023-09-30T08:31:04;8.67;;;3.27;;
1719;SDS011;857;52.872;9.692;2023-09-30T08:33:35;5.67;;;2.83;;
1719;SDS011;857;52.872;9.692;2023-09-30T08:36:07;3.30;;;2.00;;
1719;SDS011;857;52.872;9.692;2023-09-30T08:38:36;6.23;;;2.77;;
1719;SDS011;857;52.872;9.692;2023-09-30T08:41:04;9.80;;;2.83;;
1719;SDS011;857;52.872;9.692;2023-09-30T08:43:37;4.53;;;2.57;;
1719;SDS011;857;52.872;9.692;2023-09-30T08:46:14;6.87;;;2.40;;
1719;SDS011;857;52.872;9.692;2023-09-30T08:48:47;7.73;;;2.67;;
1719;SDS011;857;52.872;9.692;2023-09-30T08:51:58;8.80;;;3.07;;
1719;SDS011;857;52.872;9.692;2023-09-30T08:54:42;8.53;;;3.27;;
1719;SDS011;857;52.872;9.692;2023-09-30T08:57:14;6.47;;;2.07;;
1719;SDS011;857;52.872;9.692;2023-09-30T08:59:55;5.20;;;2.53;;
1719;SDS011;857;52.872;9.692;2023-09-30T09:02:26;3.70;;;2.03;;
1719;SDS011;857;52.872;9.692;2023-09-30T09:04:59;6.63;;;1.90;;
1719;SDS011;857;52.872;9.692;2023-09-30T09:11:54;5.40;;;2.20;;
1719;SDS011;857;52.872;9.692;2023-09-30T09:14:45;5.10;;;2.20;;
1719;SDS011;857;52.872;9.692;2023-09-30T09:17:16;5.67;;;2.13;;
1719;SDS011;857;52.872;9.692;2023-09-30T09:19:58;6.17;;;3.00;;
1719;SDS011;857;52.872;9.692;2023-09-30T09:22:47;9.43;;;2.70;;
1719;SDS011;857;52.872;9.692;2023-09-30T09:28:40;5.33;;;2.60;;
1719;SDS011;857;52.872;9.692;2023-09-30T09:31:23;6.33;;;2.73;;
1719;SDS011;857;52.872;9.692;2023-09-30T09:33:53;2.90;;;1.50;;
1719;SDS011;857;52.872;9.692;2023-09-30T09:36:22;3.40;;;1.80;;
1719;SDS011;857;52.872;9.692;2023-09-30T09:39:07;5.40;;;2.37;;
1719;SDS011;857;52.872;9.692;2023-09-30T09:41:48;4.90;;;1.90;;
1719;SDS011;857;52.872;9.692;2023-09-30T09:44:22;6.80;;;2.07;;
1719;SDS011;857;52.872;9.692;2023-09-30T09:46:54;3.83;;;2.03;;
1719;SDS011;857;52.872;9.692;2023-09-30T09:49:23;5.37;;;2.80;;
1719;SDS011;857;52.872;9.692;2023-09-30T09:51:54;5.10;;;2.20;;
1719;SDS011;857;52.872;9.692;2023-09-30T09:54:23;3.07;;;1.77;;
1719;SDS011;857;52.872;9.692;2023-09-30T09:56:51;4.73;;;1.90;;
1719;SDS011;857;52.872;9.692;2023-09-30T09:59:22;3.57;;;2.00;;
1719;SDS011;857;52.872;9.692;2023-09-30T10:01:52;3.47;;;2.10;;
1719;SDS011;857;52.872;9.692;2023-09-30T10:04:21;5.07;;;2.10;;
1719;SDS011;857;52.872;9.692;2023-09-30T10:06:50;5.07;;;2.40;;
1719;SDS011;857;52.872;9.692;2023-09-30T10:09:21;3.60;;;1.93;;
1719;SDS011;857;52.872;9.692;2023-09-30T10:11:49;4.83;;;1.93;;
1719;SDS011;857;52.872;9.692;2023-09-30T10:14:33;9.40;;;3.73;;
1719;SDS011;857;52.872;9.692;2023-09-30T10:17:16;2.07;;;1.53;;
1719;SDS011;857;52.872;9.692;2023-09-30T10:20:03;3.97;;;2.40;;
1719;SDS011;857;52.872;9.692;2023-09-30T10:22:47;3.83;;;1.73;;
1719;SDS011;857;52.872;9.692;2023-09-30T10:36:39;6.63;;;2.10;;
1719;SDS011;857;52.872;9.692;2023-09-30T10:39:11;3.97;;;2.03;;
1719;SDS011;857;52.872;9.692;2023-09-30T10:41:49;3.77;;;2.27;;
1719;SDS011;857;52.872;9.692;2023-09-30T10:44:36;7.20;;;2.20;;
1719;SDS011;857;52.872;9.692;2023-09-30T10:49:51;4.73;;;1.90;;
1719;SDS011;857;52.872;9.692;2023-09-30T10:52:22;2.33;;;1.53;;
1719;SDS011;857;52.872;9.692;2023-09-30T10:54:50;3.93;;;1.70;;
1719;SDS011;857;52.872;9.692;2023-09-30T10:57:26;5.10;;;2.07;;
1719;SDS011;857;52.872;9.692;2023-09-30T11:00:06;4.13;;;2.07;;
1719;SDS011;857;52.872;9.692;2023-09-30T11:02:47;4.03;;;2.17;;
1719;SDS011;857;52.872;9.692;2023-09-30T11:05:15;4.50;;;1.77;;
1719;SDS011;857;52.872;9.692;2023-09-30T11:07:45;8.27;;;1.90;;
1719;SDS011;857;52.872;9.692;2023-09-30T11:10:17;2.80;;;1.70;;
1719;SDS011;857;52.872;9.692;2023-09-30T11:15:32;4.70;;;1.60;;
1719;SDS011;857;52.872;9.692;2023-09-30T11:18:12;4.13;;;2.10;;
1719;SDS011;857;52.872;9.692;2023-09-30T11:20:41;6.60;;;1.80;;
1719;SDS011;857;52.872;9.692;2023-09-30T11:23:11;4.70;;;1.80;;
1719;SDS011;857;52.872;9.692;2023-09-30T11:25:40;2.10;;;1.30;;
1719;SDS011;857;52.872;9.692;2023-09-30T11:28:14;4.10;;;1.60;;
1719;SDS011;857;52.872;9.692;2023-09-30T11:30:55;4.20;;;2.00;;
1719;SDS011;857;52.872;9.692;2023-09-30T11:33:23;2.90;;;1.47;;
1719;SDS011;857;52.872;9.692;2023-09-30T11:35:59;2.63;;;1.43;;
1719;SDS011;857;52.872;9.692;2023-09-30T11:38:29;3.30;;;1.70;;
1719;SDS011;857;52.872;9.692;2023-09-30T11:40:57;3.90;;;1.57;;
1719;SDS011;857;52.872;9.692;2023-09-30T11:43:25;2.70;;;1.57;;
1719;SDS011;857;52.872;9.692;2023-09-30T11:46:03;3.43;;;1.57;;
1719;SDS011;857;52.872;9.692;2023-09-30T11:48:31;6.00;;;1.80;;
1719;SDS011;857;52.872;9.692;2023-09-30T11:50:59;4.53;;;1.83;;
1719;SDS011;857;52.872;9.692;2023-09-30T11:53:32;2.40;;;1.40;;
1719;SDS011;857;52.872;9.692;2023-09-30T11:56:01;4.80;;;1.70;;
1719;SDS011;857;52.872;9.692;2023-09-30T11:58:29;5.13;;;1.90;;
1719;SDS011;857;52.872;9.692;2023-09-30T12:00:58;4.57;;;1.77;;
1719;SDS011;857;52.872;9.692;2023-09-30T12:03:26;3.80;;;1.70;;
1719;SDS011;857;52.872;9.692;2023-09-30T12:05:54;2.03;;;1.30;;
1719;SDS011;857;52.872;9.692;2023-09-30T12:08:22;5.60;;;1.43;;
1719;SDS011;857;52.872;9.692;2023-09-30T12:10:51;3.17;;;1.47;;
1719;SDS011;857;52.872;9.692;2023-09-30T12:13:19;5.57;;;2.00;;
1719;SDS011;857;52.872;9.692;2023-09-30T12:15:47;3.53;;;1.40;;
1719;SDS011;857;52.872;9.692;2023-09-30T12:18:15;3.87;;;1.93;;
1719;SDS011;857;52.872;9.692;2023-09-30T12:20:49;2.23;;;1.40;;
1719;SDS011;857;52.872;9.692;2023-09-30T12:23:17;3.90;;;1.67;;
1719;SDS011;857;52.872;9.692;2023-09-30T12:25:45;3.70;;;1.33;;
1719;SDS011;857;52.872;9.692;2023-09-30T12:28:15;3.17;;;1.70;;
1719;SDS011;857;52.872;9.692;2023-09-30T12:30:47;3.43;;;1.83;;
1719;SDS011;857;52.872;9.692;2023-09-30T12:33:15;3.40;;;1.50;;
1719;SDS011;857;52.872;9.692;2023-09-30T12:35:43;2.10;;;1.20;;
1719;SDS011;857;52.872;9.692;2023-09-30T12:38:11;1.33;;;1.17;;
1719;SDS011;857;52.872;9.692;2023-09-30T12:40:39;6.30;;;1.90;;
1719;SDS011;857;52.872;9.692;2023-09-30T12:43:07;1.70;;;1.23;;
1719;SDS011;857;52.872;9.692;2023-09-30T12:45:37;2.40;;;1.60;;
1719;SDS011;857;52.872;9.692;2023-09-30T12:48:05;5.50;;;2.20;;
1719;SDS011;857;52.872;9.692;2023-09-30T12:50:33;3.63;;;1.83;;
1719;SDS011;857;52.872;9.692;2023-09-30T12:53:01;3.80;;;1.53;;
1719;SDS011;857;52.872;9.692;2023-09-30T12:55:33;3.40;;;1.40;;
1719;SDS011;857;52.872;9.692;2023-09-30T12:58:01;2.43;;;1.30;;
1719;SDS011;857;52.872;9.692;2023-09-30T13:00:30;4.63;;;1.50;;
1719;SDS011;857;52.872;9.692;2023-09-30T13:03:00;4.73;;;1.70;;
1719;SDS011;857;52.872;9.692;2023-09-30T13:05:28;3.60;;;1.40;;
1719;SDS011;857;52.872;9.692;2023-09-30T13:07:56;4.20;;;1.40;;
1719;SDS011;857;52.872;9.692;2023-09-30T13:10:24;3.53;;;1.27;;
1719;SDS011;857;52.872;9.692;2023-09-30T13:12:54;3.23;;;1.63;;
1719;SDS011;857;52.872;9.692;2023-09-30T13:15:26;3.87;;;1.43;;
1719;SDS011;857;52.872;9.692;2023-09-30T13:17:55;2.80;;;1.30;;
1719;SDS011;857;52.872;9.692;2023-09-30T13:20:26;3.13;;;1.23;;
1719;SDS011;857;52.872;9.692;2023-09-30T13:22:53;3.37;;;1.10;;
1719;SDS011;857;52.872;9.692;2023-09-30T13:25:23;1.30;;;1.07;;
1719;SDS011;857;52.872;9.692;2023-09-30T13:27:53;2.03;;;1.30;;
1719;SDS011;857;52.872;9.692;2023-09-30T13:30:23;5.47;;;1.60;;
1719;SDS011;857;52.872;9.692;2023-09-30T13:32:51;3.03;;;1.37;;
1719;SDS011;857;52.872;9.692;2023-09-30T13:35:20;3.83;;;1.40;;
1719;SDS011;857;52.872;9.692;2023-09-30T13:37:50;5.50;;;1.60;;
1719;SDS011;857;52.872;9.692;2023-09-30T13:40:18;4.23;;;1.40;;
1719;SDS011;857;52.872;9.692;2023-09-30T13:42:46;2.07;;;1.50;;
1719;SDS011;857;52.872;9.692;2023-09-30T13:45:13;4.33;;;1.23;;
1719;SDS011;857;52.872;9.692;2023-09-30T13:47:42;5.37;;;1.47;;
1719;SDS011;857;52.872;9.692;2023-09-30T13:50:10;2.60;;;1.27;;
1719;SDS011;857;52.872;9.692;2023-09-30T13:52:38;2.50;;;1.53;;
1719;SDS011;857;52.872;9.692;2023-09-30T13:55:09;2.60;;;1.13;;
1719;SDS011;857;52.872;9.692;2023-09-30T13:57:37;3.93;;;1.30;;
1719;SDS011;857;52.872;9.692;2023-09-30T14:00:07;6.10;;;1.60;;
1719;SDS011;857;52.872;9.692;2023-09-30T14:02:36;4.80;;;1.40;;
1719;SDS011;857;52.872;9.692;2023-09-30T14:05:06;3.93;;;1.30;;
1719;SDS011;857;52.872;9.692;2023-09-30T14:07:34;4.60;;;1.90;;
1719;SDS011;857;52.872;9.692;2023-09-30T14:10:02;5.80;;;1.60;;
1719;SDS011;857;52.872;9.692;2023-09-30T14:12:35;2.60;;;1.47;;
1719;SDS011;857;52.872;9.692;2023-09-30T14:15:07;1.80;;;1.50;;
1719;SDS011;857;52.872;9.692;2023-09-30T14:17:35;2.97;;;1.40;;
1719;SDS011;857;52.872;9.692;2023-09-30T14:20:06;2.10;;;1.00;;
1719;SDS011;857;52.872;9.692;2023-09-30T14:22:50;3.33;;;1.43;;
1719;SDS011;857;52.872;9.692;2023-09-30T14:25:30;1.67;;;1.33;;
1719;SDS011;857;52.872;9.692;2023-09-30T14:28:01;1.73;;;1.20;;
1719;SDS011;857;52.872;9.692;2023-09-30T14:30:31;7.80;;;1.33;;
1719;SDS011;857;52.872;9.692;2023-09-30T14:33:01;2.17;;;1.60;;
1719;SDS011;857;52.872;9.692;2023-09-30T14:36:13;3.33;;;1.40;;
1719;SDS011;857;52.872;9.692;2023-09-30T14:39:00;2.47;;;1.37;;
1719;SDS011;857;52.872;9.692;2023-09-30T14:41:28;2.77;;;1.47;;
1719;SDS011;857;52.872;9.692;2023-09-30T14:44:00;5.70;;;1.93;;
1719;SDS011;857;52.872;9.692;2023-09-30T14:46:30;3.10;;;1.47;;
1719;SDS011;857;52.872;9.692;2023-09-30T14:48:57;2.60;;;1.30;;
1719;SDS011;857;52.872;9.692;2023-09-30T14:51:25;1.40;;;1.30;;
1719;SDS011;857;52.872;9.692;2023-09-30T14:53:53;3.60;;;2.00;;
1719;SDS011;857;52.872;9.692;2023-09-30T14:56:21;2.60;;;1.63;;
1719;SDS011;857;52.872;9.692;2023-09-30T14:58:48;2.47;;;1.17;;
1719;SDS011;857;52.872;9.692;2023-09-30T15:01:18;1.13;;;1.03;;
1719;SDS011;857;52.872;9.692;2023-09-30T15:03:46;2.77;;;1.67;;
1719;SDS011;857;52.872;9.692;2023-09-30T15:06:14;2.57;;;1.60;;
1719;SDS011;857;52.872;9.692;2023-09-30T15:08:42;2.73;;;1.80;;
1719;SDS011;857;52.872;9.692;2023-09-30T15:11:14;2.83;;;1.47;;
1719;SDS011;857;52.872;9.692;2023-09-30T15:13:47;3.20;;;1.70;;
1719;SDS011;857;52.872;9.692;2023-09-30T15:16:19;7.20;;;4.00;;
1719;SDS011;857;52.872;9.692;2023-09-30T15:18:49;3.83;;;2.33;;
1719;SDS011;857;52.872;9.692;2023-09-30T15:21:17;1.67;;;1.57;;
1719;SDS011;857;52.872;9.692;2023-09-30T15:23:45;3.20;;;2.07;;
1719;SDS011;857;52.872;9.692;2023-09-30T15:26:13;4.13;;;2.60;;
1719;SDS011;857;52.872;9.692;2023-09-30T15:31:32;3.73;;;2.20;;
1719;SDS011;857;52.872;9.692;2023-09-30T15:34:00;4.10;;;2.70;;
1719;SDS011;857;52.872;9.692;2023-09-30T15:36:28;2.97;;;1.77;;
1719;SDS011;857;52.872;9.692;2023-09-30T15:38:56;4.53;;;2.27;;
1719;SDS011;857;52.872;9.692;2023-09-30T15:41:34;3.77;;;2.13;;
1719;SDS011;857;52.872;9.692;2023-09-30T15:44:04;1.57;;;1.13;;
1719;SDS011;857;52.872;9.692;2023-09-30T15:46:34;3.30;;;1.70;;
1719;SDS011;857;52.872;9.692;2023-09-30T15:49:01;10.40;;;2.53;;
1719;SDS011;857;52.872;9.692;2023-09-30T15:51:29;7.10;;;2.33;;
1719;SDS011;857;52.872;9.692;2023-09-30T15:53:57;2.40;;;1.70;;
1719;SDS011;857;52.872;9.692;2023-09-30T15:56:25;2.80;;;1.67;;
1719;SDS011;857;52.872;9.692;2023-09-30T15:58:53;2.40;;;1.70;;
1719;SDS011;857;52.872;9.692;2023-09-30T16:01:22;3.20;;;2.20;;
1719;SDS011;857;52.872;9.692;2023-09-30T16:03:54;2.30;;;1.67;;
1719;SDS011;857;52.872;9.692;2023-09-30T16:06:23;5.30;;;2.40;;
1719;SDS011;857;52.872;9.692;2023-09-30T16:08:51;4.70;;;2.43;;
1719;SDS011;857;52.872;9.692;2023-09-30T16:11:24;4.33;;;2.40;;
1719;SDS011;857;52.872;9.692;2023-09-30T16:13:52;6.40;;;2.50;;
1719;SDS011;857;52.872;9.692;2023-09-30T16:16:19;3.33;;;1.90;;
1719;SDS011;857;52.872;9.692;2023-09-30T16:18:47;4.00;;;2.27;;
1719;SDS011;857;52.872;9.692;2023-09-30T16:21:16;3.97;;;2.73;;
1719;SDS011;857;52.872;9.692;2023-09-30T16:23:45;3.23;;;2.20;;
1719;SDS011;857;52.872;9.692;2023-09-30T16:26:13;6.73;;;2.60;;
1719;SDS011;857;52.872;9.692;2023-09-30T16:28:41;4.43;;;3.20;;
1719;SDS011;857;52.872;9.692;2023-09-30T16:31:09;4.30;;;2.43;;